Time;durP1;ratioP1;P1;durP2;ratioP2;P2;SDS_P1;SDS_P2;PMS_P1;PMS_P2;Temp;Humidity;BMP_temperature;BMP_pressure;BME280_temperature;BME280_humidity;BME280_pressure;Samples;Min_cycle;Max_cycle;Signal;HPM_P1;HPM_P2
2023/05/24 00:00:17;;;;;;;18.70;8.30;;;;;;;16.10;61.35;98624.89;103445;1277;108372;-79
2023/05/24 00:03:05;;;;;;;17.00;8.20;;;;;;;16.11;61.49;98626.75;103459;1277;98439;-78
2023/05/24 00:05:39;;;;;;;17.20;7.80;;;;;;;16.12;61.50;98627.00;103463;1284;98023;-77
2023/05/24 00:08:07;;;;;;;17.50;7.80;;;;;;;16.14;61.46;98629.83;103534;1280;110770;-78
2023/05/24 00:10:35;;;;;;;18.70;7.20;;;;;;;16.16;61.45;98630.73;103399;1279;98081;-77
2023/05/24 00:13:03;;;;;;;19.30;7.30;;;;;;;16.17;61.56;98632.03;103517;1277;108357;-77
2023/05/24 00:15:31;;;;;;;15.60;7.80;;;;;;;16.17;61.59;98631.30;103433;1279;98491;-78
2023/05/24 00:17:59;;;;;;;17.20;7.50;;;;;;;16.18;61.66;98633.33;103646;1277;98005;-78
2023/05/24 00:20:27;;;;;;;14.80;7.60;;;;;;;16.19;61.77;98633.25;103637;1278;111309;-78
2023/05/24 00:22:55;;;;;;;17.60;7.40;;;;;;;16.18;61.72;98634.39;103477;1279;98074;-78
2023/05/24 00:25:23;;;;;;;17.10;7.70;;;;;;;16.18;61.84;98635.64;103407;1276;107707;-79
2023/05/24 00:27:51;;;;;;;16.50;7.40;;;;;;;16.18;61.94;98634.04;103574;1275;97944;-78
2023/05/24 00:30:19;;;;;;;16.40;7.60;;;;;;;16.19;61.92;98632.85;103518;1280;98013;-80
2023/05/24 00:32:46;;;;;;;15.70;7.60;;;;;;;16.20;62.04;98633.46;103512;1282;111463;-78
2023/05/24 00:35:15;;;;;;;19.30;8.30;;;;;;;16.21;62.13;98631.25;103412;1282;97912;-78
2023/05/24 00:37:44;;;;;;;19.00;8.40;;;;;;;16.22;62.01;98633.47;103360;1280;105732;-78
2023/05/24 00:40:12;;;;;;;16.80;8.00;;;;;;;16.23;61.97;98632.17;103481;1277;98909;-77
2023/05/24 00:42:40;;;;;;;17.20;8.40;;;;;;;16.23;62.13;98631.10;103625;1276;97899;-77
2023/05/24 00:45:08;;;;;;;18.50;8.30;;;;;;;16.23;62.05;98636.80;103538;1279;112569;-77
2023/05/24 00:47:36;;;;;;;17.90;8.30;;;;;;;16.23;62.14;98633.95;103549;1286;98068;-78
2023/05/24 00:50:07;;;;;;;19.80;8.20;;;;;;;16.22;62.14;98635.83;103609;1276;107632;-78
2023/05/24 00:52:35;;;;;;;20.00;8.50;;;;;;;16.21;62.27;98637.16;103470;1292;97923;-81
2023/05/24 00:55:04;;;;;;;16.90;8.70;;;;;;;16.20;62.33;98637.92;103458;1282;97963;-77
2023/05/24 00:57:34;;;;;;;22.30;8.70;;;;;;;16.20;62.37;98635.61;103508;1280;111316;-79
2023/05/24 01:00:04;;;;;;;16.30;8.00;;;;;;;16.20;62.46;98637.13;103610;1276;98142;-78
2023/05/24 01:02:33;;;;;;;19.30;9.00;;;;;;;16.19;62.53;98637.19;103418;1277;107711;-77
2023/05/24 01:05:01;;;;;;;17.50;8.10;;;;;;;16.19;62.48;98636.48;103527;1279;98894;-78
2023/05/24 01:07:38;;;;;;;19.60;9.90;;;;;;;16.18;62.42;98637.14;103486;1279;98052;-78
2023/05/24 01:10:15;;;;;;;19.90;9.60;;;;;;;16.18;62.70;98633.75;103452;1276;111367;-80
2023/05/24 01:13:00;;;;;;;20.50;9.10;;;;;;;16.18;62.77;98634.10;103467;1281;99220;-78
2023/05/24 01:16:11;;;;;;;16.50;8.30;;;;;;;16.18;62.98;98634.45;103606;1280;107621;-77
2023/05/24 01:18:45;;;;;;;18.70;9.30;;;;;;;16.16;62.74;98633.38;103358;1280;98075;-78
2023/05/24 01:21:37;;;;;;;22.70;10.70;;;;;;;16.15;63.01;98634.71;103658;1275;97960;-77
2023/05/24 01:24:24;;;;;;;17.90;8.80;;;;;;;16.14;62.92;98633.75;103550;1277;110662;-78
2023/05/24 01:27:05;;;;;;;16.60;8.80;;;;;;;16.12;63.05;98633.60;103417;1279;98037;-79
2023/05/24 01:29:35;;;;;;;18.70;10.00;;;;;;;16.11;63.00;98634.08;103471;1279;107733;-79
2023/05/24 01:32:03;;;;;;;23.80;11.40;;;;;;;16.10;63.11;98630.98;103520;1279;97988;-78
2023/05/24 01:34:31;;;;;;;21.20;10.60;;;;;;;16.09;63.19;98630.55;103455;1277;97975;-78
2023/05/24 01:36:59;;;;;;;21.10;10.10;;;;;;;16.07;63.32;98635.51;103476;1277;111228;-79
2023/05/24 01:39:28;;;;;;;20.50;10.80;;;;;;;16.07;63.40;98634.16;103451;1276;99220;-79
2023/05/24 01:42:15;;;;;;;21.30;10.80;;;;;;;16.06;63.39;98632.27;103432;1277;107297;-79
2023/05/24 01:45:07;;;;;;;19.00;10.20;;;;;;;16.04;63.49;98629.92;103470;1279;98913;-78
2023/05/24 01:47:51;;;;;;;24.10;10.70;;;;;;;16.03;63.58;98629.00;103567;1276;97973;-77
2023/05/24 01:50:27;;;;;;;22.50;10.90;;;;;;;16.01;63.76;98628.65;103444;1280;111327;-77
2023/05/24 01:53:01;;;;;;;21.30;12.10;;;;;;;16.00;63.62;98629.28;103620;1279;98000;-79
2023/05/24 01:55:33;;;;;;;22.90;12.30;;;;;;;15.98;63.64;98631.08;103522;1280;106107;-78
2023/05/24 01:58:03;;;;;;;24.90;13.30;;;;;;;15.98;63.68;98630.27;103260;1279;261477;-78
2023/05/24 02:00:32;;;;;;;22.60;13.60;;;;;;;15.97;63.80;98633.20;103463;1277;97939;-79
2023/05/24 02:03:00;;;;;;;22.90;13.80;;;;;;;15.95;63.82;98628.88;103444;1277;111042;-78
2023/05/24 02:05:31;;;;;;;23.10;13.50;;;;;;;15.95;63.95;98632.14;103545;1279;97988;-79
2023/05/24 02:08:00;;;;;;;24.20;13.70;;;;;;;15.94;64.01;98629.04;103397;1280;107654;-78
2023/05/24 02:10:28;;;;;;;24.20;14.60;;;;;;;15.93;64.08;98629.44;103423;1280;98014;-78
2023/05/24 02:12:58;;;;;;;23.90;14.20;;;;;;;15.92;64.19;98630.23;103386;1282;97973;-78
2023/05/24 02:15:29;;;;;;;24.00;14.70;;;;;;;15.92;64.07;98631.53;103398;1279;112302;-78
2023/05/24 02:17:57;;;;;;;25.50;14.10;;;;;;;15.91;64.19;98634.08;103445;1279;98334;-78
2023/05/24 02:20:25;;;;;;;25.80;15.40;;;;;;;15.91;64.31;98637.52;103360;1278;106933;-78
2023/05/24 02:22:54;;;;;;;28.10;15.90;;;;;;;15.91;64.40;98637.70;103427;1279;98646;-78
2023/05/24 02:25:22;;;;;;;25.40;15.50;;;;;;;15.90;64.50;98641.55;103468;1277;98046;-79
2023/05/24 02:27:50;;;;;;;27.10;16.30;;;;;;;15.89;64.55;98637.76;103453;1280;111006;-78
2023/05/24 02:30:18;;;;;;;26.00;15.60;;;;;;;15.89;64.60;98643.46;103495;1280;98899;-78
2023/05/24 02:32:46;;;;;;;26.30;16.20;;;;;;;15.88;64.67;98642.29;103442;1277;106730;-78
2023/05/24 02:35:15;;;;;;;28.60;16.80;;;;;;;15.88;64.68;98642.34;103418;1279;98001;-77
2023/05/24 02:37:43;;;;;;;25.80;15.40;;;;;;;15.88;64.86;98645.89;103388;1280;97979;-78
2023/05/24 02:40:11;;;;;;;27.00;16.80;;;;;;;15.87;64.82;98639.17;103507;1276;110301;-79
2023/05/24 02:42:39;;;;;;;27.50;17.30;;;;;;;15.86;64.93;98642.26;104312;1276;97941;-78
2023/05/24 02:45:07;;;;;;;28.60;16.60;;;;;;;15.86;65.00;98645.55;104353;1276;110155;-77
2023/05/24 02:47:34;;;;;;;32.40;17.30;;;;;;;15.86;65.13;98645.73;104101;1276;98369;-78
2023/05/24 02:50:03;;;;;;;26.80;17.20;;;;;;;15.86;65.10;98646.44;104403;1280;98720;-77
2023/05/24 02:52:31;;;;;;;30.30;17.60;;;;;;;15.87;65.18;98652.60;104402;1276;110181;-77
2023/05/24 02:54:59;;;;;;;26.80;18.10;;;;;;;15.88;65.18;98654.31;104316;1274;97971;-80
2023/05/24 02:57:27;;;;;;;27.90;18.90;;;;;;;15.89;65.38;98655.80;104274;1276;108592;-78
2023/05/24 02:59:55;;;;;;;31.70;19.10;;;;;;;15.89;65.20;98663.77;104251;1276;97963;-78
2023/05/24 03:02:23;;;;;;;31.80;20.10;;;;;;;15.90;65.44;98659.92;104118;1274;98919;-80
2023/05/24 03:04:51;;;;;;;29.40;19.00;;;;;;;15.92;65.52;98660.71;104437;1276;111411;-77
2023/05/24 03:07:19;;;;;;;31.50;20.10;;;;;;;15.93;65.50;98660.38;104190;1275;97966;-78
2023/05/24 03:09:46;;;;;;;32.50;21.80;;;;;;;15.93;65.52;98661.42;105269;1276;107703;-78
2023/05/24 03:12:14;;;;;;;32.80;22.20;;;;;;;15.94;65.72;98658.11;103787;1276;98026;-79
2023/05/24 03:14:42;;;;;;;31.10;21.20;;;;;;;15.95;65.76;98665.02;103457;1276;98399;-78
2023/05/24 03:17:10;;;;;;;30.90;22.10;;;;;;;15.96;65.81;98664.72;103465;1279;110879;-79
2023/05/24 03:19:38;;;;;;;31.90;21.90;;;;;;;15.96;65.85;98663.85;103608;1276;99197;-82
2023/05/24 03:22:05;;;;;;;32.50;22.20;;;;;;;15.97;65.90;98664.45;103471;1279;107741;-79
2023/05/24 03:24:33;;;;;;;32.80;22.40;;;;;;;15.98;66.02;98667.62;103522;1282;98039;-78
2023/05/24 03:27:01;;;;;;;35.00;22.20;;;;;;;15.98;66.13;98667.42;103576;1280;98094;-78
2023/05/24 03:29:29;;;;;;;34.60;23.70;;;;;;;15.99;66.20;98669.50;103535;1277;111442;-78
2023/05/24 03:31:57;;;;;;;33.80;23.00;;;;;;;15.99;66.15;98669.09;103557;1279;97978;-78
2023/05/24 03:34:25;;;;;;;37.80;24.40;;;;;;;15.99;66.23;98672.27;103609;1277;108690;-79
2023/05/24 03:36:52;;;;;;;35.60;24.60;;;;;;;16.00;66.34;98667.40;103453;1279;98007;-78
2023/05/24 03:39:20;;;;;;;35.60;24.70;;;;;;;16.01;66.43;98670.66;103348;1287;98011;-79
2023/05/24 03:41:48;;;;;;;34.10;24.00;;;;;;;16.02;66.40;98670.77;103484;1277;111334;-78
2023/05/24 03:44:16;;;;;;;39.20;26.10;;;;;;;16.03;66.59;98671.39;103532;1280;97975;-78
2023/05/24 03:46:43;;;;;;;36.00;25.70;;;;;;;16.04;66.71;98673.38;103546;1277;107735;-78
2023/05/24 03:49:11;;;;;;;36.60;26.50;;;;;;;16.06;66.76;98671.98;103423;1279;97990;-78
2023/05/24 03:51:39;;;;;;;37.30;26.00;;;;;;;16.08;66.75;98671.77;103679;1279;97969;-78
2023/05/24 03:54:07;;;;;;;37.20;26.40;;;;;;;16.11;66.99;98676.48;103467;1279;111337;-78
2023/05/24 03:56:36;;;;;;;35.60;26.20;;;;;;;16.13;66.91;98677.55;103551;1277;97960;-78
2023/05/24 03:59:03;;;;;;;37.20;26.70;;;;;;;16.16;66.97;98681.70;103390;1277;106794;-78
2023/05/24 04:01:31;;;;;;;40.70;27.90;;;;;;;16.16;67.07;98687.20;103571;1292;99202;-78
2023/05/24 04:04:04;;;;;;;38.10;27.90;;;;;;;16.18;67.01;98688.02;103552;1276;98564;-77
2023/05/24 04:06:32;;;;;;;35.70;25.40;;;;;;;16.21;67.23;98690.29;104734;1276;111425;-78
2023/05/24 04:09:00;;;;;;;40.40;28.10;;;;;;;16.23;67.18;98693.09;106125;1276;97963;-76
2023/05/24 04:11:28;;;;;;;39.20;27.70;;;;;;;16.25;67.36;98692.06;104829;1276;106932;-77
2023/05/24 04:14:00;;;;;;;37.70;28.30;;;;;;;16.28;67.39;98692.79;104033;1277;97901;-76
2023/05/24 04:16:30;;;;;;;41.00;28.30;;;;;;;16.32;67.36;98694.04;105236;1276;97967;-77
2023/05/24 04:19:00;;;;;;;40.60;27.80;;;;;;;16.36;67.51;98697.86;103929;1277;111327;-80
2023/05/24 04:21:30;;;;;;;38.10;27.10;;;;;;;16.40;67.37;98699.80;103540;1279;97998;-79
2023/05/24 04:24:00;;;;;;;37.20;27.50;;;;;;;16.44;67.55;98700.27;103445;1280;107825;-80
2023/05/24 04:26:29;;;;;;;39.60;28.20;;;;;;;16.47;67.37;98698.70;103388;1279;99218;-79
2023/05/24 04:28:56;;;;;;;38.90;27.50;;;;;;;16.50;67.61;98703.79;103549;1279;98610;-78
2023/05/24 04:31:29;;;;;;;39.10;28.20;;;;;;;16.52;67.84;98711.79;103629;1277;112278;-79
2023/05/24 04:33:58;;;;;;;42.30;28.50;;;;;;;16.54;68.00;98713.20;103501;1279;98084;-79
2023/05/24 04:36:27;;;;;;;38.00;27.30;;;;;;;16.56;67.86;98715.40;103573;1280;107779;-80
2023/05/24 04:39:01;;;;;;;38.30;27.20;;;;;;;16.57;67.97;98717.02;103776;1279;98684;-80
2023/05/24 04:41:30;;;;;;;37.10;28.50;;;;;;;16.59;68.12;98720.79;103530;1280;97969;-78
2023/05/24 04:43:59;;;;;;;36.90;26.70;;;;;;;16.61;67.96;98721.64;103511;1280;111339;-80
2023/05/24 04:46:27;;;;;;;36.00;27.00;;;;;;;16.64;68.10;98725.28;103527;1283;97901;-79
2023/05/24 04:48:55;;;;;;;36.40;27.30;;;;;;;16.64;68.09;98725.76;103576;1282;107608;-80
2023/05/24 04:51:23;;;;;;;38.70;27.20;;;;;;;16.69;68.18;98728.36;103566;1276;99209;-79
2023/05/24 04:53:50;;;;;;;36.80;27.90;;;;;;;16.72;68.22;98734.66;103475;1289;98075;-80
2023/05/24 04:56:18;;;;;;;38.50;27.60;;;;;;;16.73;68.23;98735.45;103420;1279;113316;-78
2023/05/24 04:58:47;;;;;;;37.50;27.10;;;;;;;16.76;68.18;98736.55;103402;1277;98068;-79
2023/05/24 05:01:14;;;;;;;37.50;26.70;;;;;;;16.80;68.18;98737.55;103570;1276;107868;-81
2023/05/24 05:03:44;;;;;;;39.20;26.20;;;;;;;16.82;68.20;98741.29;104965;1276;97960;-79
2023/05/24 05:06:12;;;;;;;38.70;26.10;;;;;;;16.85;68.32;98744.65;105946;1276;97979;-80
2023/05/24 05:08:40;;;;;;;37.80;26.70;;;;;;;16.87;68.39;98751.02;103876;1274;111343;-80
2023/05/24 05:11:08;;;;;;;37.70;26.70;;;;;;;16.89;68.40;98753.67;103645;1279;98116;-80
2023/05/24 05:13:37;;;;;;;35.50;25.40;;;;;;;16.91;68.52;98758.09;103464;1276;107706;-80
2023/05/24 05:16:04;;;;;;;37.90;26.00;;;;;;;16.95;68.50;98762.02;103512;1280;97978;-82
2023/05/24 05:18:32;;;;;;;40.70;26.00;;;;;;;16.97;68.61;98762.40;103466;1279;97989;-79
2023/05/24 05:21:01;;;;;;;36.70;27.10;;;;;;;17.02;68.78;98766.13;103488;1280;111047;-80
2023/05/24 05:23:30;;;;;;;34.60;26.50;;;;;;;17.09;68.73;98770.60;103532;1279;97990;-80
2023/05/24 05:25:58;;;;;;;33.70;23.90;;;;;;;17.17;68.76;98771.20;103791;1276;107727;-81
2023/05/24 05:28:26;;;;;;;41.50;27.70;;;;;;;17.24;68.87;98773.52;104659;1277;97965;-82
2023/05/24 05:30:55;;;;;;;35.30;24.60;;;;;;;17.28;68.71;98775.83;106905;1275;95677;-80
2023/05/24 05:33:23;;;;;;;35.60;23.20;;;;;;;17.33;68.89;98777.58;106896;1277;111006;-80
2023/05/24 05:35:51;;;;;;;35.70;25.20;;;;;;;17.40;68.85;98781.20;106003;1277;96809;-81
2023/05/24 05:38:21;;;;;;;33.90;23.80;;;;;;;17.47;68.91;98780.86;104155;1275;107668;-78
2023/05/24 05:40:49;;;;;;;32.40;23.20;;;;;;;17.52;68.90;98782.61;106890;1276;95685;-81
2023/05/24 05:43:17;;;;;;;33.50;23.40;;;;;;;17.60;68.86;98786.91;106890;1276;95769;-80
2023/05/24 05:45:45;;;;;;;31.40;21.90;;;;;;;17.68;68.86;98791.27;106920;1276;111412;-80
2023/05/24 05:48:13;;;;;;;31.60;22.00;;;;;;;17.73;68.90;98796.59;105882;1279;98069;-80
2023/05/24 05:50:41;;;;;;;33.80;22.80;;;;;;;17.78;68.98;98800.50;103742;1277;107392;-80
2023/05/24 05:53:09;;;;;;;34.90;23.60;;;;;;;17.81;68.99;98806.55;104073;1280;97905;-80
2023/05/24 05:55:37;;;;;;;30.90;21.30;;;;;;;17.85;69.03;98807.98;105609;1276;97905;-82
2023/05/24 05:58:05;;;;;;;32.50;21.40;;;;;;;17.92;69.25;98811.95;105979;1276;111400;-80
2023/05/24 06:00:33;;;;;;;30.60;21.60;;;;;;;18.03;69.24;98815.27;103763;1279;99208;-80
2023/05/24 06:03:01;;;;;;;31.50;20.60;;;;;;;18.15;69.08;98817.44;103558;1277;107702;-80
2023/05/24 06:05:29;;;;;;;29.90;20.20;;;;;;;18.21;69.05;98822.68;103414;1282;97964;-80
2023/05/24 06:07:56;;;;;;;29.60;20.30;;;;;;;18.24;69.16;98826.66;103456;1277;97975;-81
2023/05/24 06:10:24;;;;;;;30.40;20.90;;;;;;;18.24;69.11;98825.45;103394;1279;111318;-80
2023/05/24 06:12:53;;;;;;;28.60;19.40;;;;;;;18.34;69.34;98833.44;103445;1277;99013;-81
2023/05/24 06:15:21;;;;;;;30.80;19.20;;;;;;;18.37;69.20;98838.48;103437;1280;107471;-81
2023/05/24 06:17:51;;;;;;;27.90;19.20;;;;;;;18.35;69.04;98843.44;103416;1279;97921;-81
2023/05/24 06:20:19;;;;;;;28.70;19.20;;;;;;;18.28;68.96;98843.26;103393;1278;97905;-80
2023/05/24 06:22:49;;;;;;;28.30;19.70;;;;;;;18.24;69.10;98846.15;103371;1291;111217;-80
2023/05/24 06:25:19;;;;;;;31.10;19.50;;;;;;;18.23;69.18;98847.42;103322;1281;97991;-81
2023/05/24 06:27:48;;;;;;;30.70;19.00;;;;;;;18.24;69.16;98851.17;103482;1281;107559;-81
2023/05/24 06:30:16;;;;;;;29.00;18.80;;;;;;;18.27;69.18;98850.20;103770;1276;99205;-79
2023/05/24 06:32:44;;;;;;;29.40;19.00;;;;;;;18.27;69.18;98853.09;104349;1279;97911;-82
2023/05/24 06:35:13;;;;;;;26.20;18.40;;;;;;;18.26;69.21;98858.14;104313;1274;111337;-79
2023/05/24 06:37:40;;;;;;;27.50;16.80;;;;;;;18.27;69.08;98865.77;104424;1276;97995;-81
2023/05/24 06:40:08;;;;;;;29.90;19.00;;;;;;;18.26;69.17;98863.77;105615;1276;107721;-81
2023/05/24 06:42:38;;;;;;;27.00;16.90;;;;;;;18.27;69.09;98868.86;105278;1275;96151;-81
2023/05/24 06:45:08;;;;;;;24.00;16.20;;;;;;;18.29;69.11;98873.14;103637;1279;97992;-80
2023/05/24 06:47:36;;;;;;;23.90;15.50;;;;;;;18.27;69.09;98881.21;103500;1292;109954;-80
2023/05/24 06:50:04;;;;;;;23.80;15.70;;;;;;;18.26;69.19;98883.16;103439;1283;97960;-80
2023/05/24 06:52:32;;;;;;;25.00;15.40;;;;;;;18.27;69.10;98884.61;103409;1287;109674;-80
2023/05/24 06:55:00;;;;;;;24.90;15.70;;;;;;;18.27;69.10;98884.82;103470;1282;98051;-82
2023/05/24 06:57:28;;;;;;;24.90;15.40;;;;;;;18.26;69.02;98886.16;103486;1277;97840;-80
2023/05/24 06:59:56;;;;;;;24.90;15.00;;;;;;;18.28;69.17;98884.92;103487;1286;111290;-80
2023/05/24 07:02:26;;;;;;;26.60;15.30;;;;;;;18.34;69.20;98887.08;103341;1279;98117;-79
2023/05/24 07:04:54;;;;;;;24.90;15.10;;;;;;;18.43;69.31;98886.89;103428;1277;107704;-81
2023/05/24 07:07:22;;;;;;;25.40;15.00;;;;;;;18.50;69.21;98885.27;103427;1287;98173;-81
2023/05/24 07:09:50;;;;;;;25.40;14.60;;;;;;;18.55;69.09;98886.95;103445;1279;98087;-81
2023/05/24 07:12:19;;;;;;;22.90;13.60;;;;;;;18.56;69.05;98889.81;103383;1279;110672;-80
2023/05/24 07:14:46;;;;;;;24.80;14.50;;;;;;;18.52;68.96;98896.33;103366;1282;98074;-81
2023/05/24 07:17:14;;;;;;;22.80;14.20;;;;;;;18.48;68.97;98895.85;103372;1277;107826;-79
2023/05/24 07:19:42;;;;;;;23.30;14.60;;;;;;;18.43;68.98;98898.67;103325;1279;97991;-81
2023/05/24 07:22:11;;;;;;;25.10;14.40;;;;;;;18.38;68.92;98899.96;103359;1280;98043;-80
2023/05/24 07:24:39;;;;;;;25.50;14.60;;;;;;;18.30;68.98;98902.66;103373;1275;111327;-81
2023/05/24 07:27:08;;;;;;;25.40;14.80;;;;;;;18.27;68.98;98907.67;103532;1277;97982;-81
2023/05/24 07:29:36;;;;;;;25.00;15.40;;;;;;;18.21;68.97;98912.60;103406;1277;106107;-81
2023/05/24 07:32:05;;;;;;;25.10;15.90;;;;;;;18.15;69.02;98914.46;103408;1279;98900;-81
2023/05/24 07:34:33;;;;;;;28.30;17.00;;;;;;;18.14;69.13;98918.33;103541;1279;98065;-80
2023/05/24 07:37:01;;;;;;;26.60;18.10;;;;;;;18.14;69.19;98914.02;103542;1290;109962;-81
2023/05/24 07:39:30;;;;;;;25.10;15.60;;;;;;;18.14;69.18;98918.66;103404;1280;97936;-80
2023/05/24 07:41:57;;;;;;;28.70;17.90;;;;;;;18.12;69.07;98921.20;103421;1274;106769;-81
2023/05/24 07:44:25;;;;;;;27.70;17.90;;;;;;;18.05;69.04;98924.34;103346;1283;99269;-81
2023/05/24 07:46:54;;;;;;;30.00;18.70;;;;;;;18.01;69.05;98924.22;103478;1279;97947;-79
2023/05/24 07:49:22;;;;;;;26.60;18.40;;;;;;;18.01;69.20;98923.85;103609;1280;111172;-81
2023/05/24 07:51:51;;;;;;;27.20;18.30;;;;;;;18.04;69.23;98929.05;103763;1289;98075;-81
2023/05/24 07:54:20;;;;;;;28.10;18.90;;;;;;;18.05;69.24;98933.63;103715;1279;105801;-81
2023/05/24 07:56:48;;;;;;;28.40;19.70;;;;;;;18.05;69.19;98939.40;104035;1279;97991;-81
2023/05/24 07:59:15;;;;;;;28.00;19.70;;;;;;;18.07;69.37;98943.09;103590;1282;97988;-81
2023/05/24 08:01:43;;;;;;;31.00;21.70;;;;;;;18.13;69.40;98946.06;103433;1282;111412;-80
2023/05/24 08:04:11;;;;;;;31.40;21.40;;;;;;;18.22;69.43;98946.41;103338;1283;98091;-81
2023/05/24 08:06:40;;;;;;;29.60;20.10;;;;;;;18.24;69.21;98949.92;103456;1283;107539;-80
2023/05/24 08:09:09;;;;;;;32.60;22.50;;;;;;;18.19;69.16;98950.52;103467;1280;97963;-79
2023/05/24 08:11:36;;;;;;;30.20;19.70;;;;;;;18.22;69.40;98949.64;104175;1279;98001;-78
2023/05/24 08:14:04;;;;;;;28.90;20.40;;;;;;;18.26;69.40;98956.53;103747;1279;111404;-81
2023/05/24 08:16:32;;;;;;;32.50;22.20;;;;;;;18.32;69.35;98957.32;103499;1281;98108;-79
2023/05/24 08:19:00;;;;;;;32.00;21.60;;;;;;;18.42;69.56;98956.46;103704;1277;107668;-79
2023/05/24 08:21:28;;;;;;;30.60;20.70;;;;;;;18.51;69.25;98958.40;103795;1281;97960;-79
2023/05/24 08:23:56;;;;;;;29.50;20.60;;;;;;;18.61;69.40;98955.73;103614;1279;97988;-80
2023/05/24 08:26:24;;;;;;;30.40;20.20;;;;;;;18.73;69.42;98958.83;103601;1286;110370;-79
2023/05/24 08:28:53;;;;;;;30.20;21.00;;;;;;;18.85;69.40;98960.16;103636;1282;98842;-80
2023/05/24 08:31:21;;;;;;;27.90;19.80;;;;;;;19.00;69.60;98962.80;103587;1279;107759;-81
2023/05/24 08:33:50;;;;;;;28.10;18.50;;;;;;;19.17;69.55;98964.18;103588;1280;98071;-79
2023/05/24 08:36:18;;;;;;;25.40;17.70;;;;;;;19.32;69.39;98967.20;104806;1278;97929;-81
2023/05/24 08:38:46;;;;;;;26.40;17.80;;;;;;;19.50;69.52;98967.61;105463;1277;112551;-81
2023/05/24 08:41:14;;;;;;;26.10;18.30;;;;;;;19.68;69.52;98971.26;103871;1276;98933;-81
2023/05/24 08:43:43;;;;;;;28.50;18.60;;;;;;;19.86;69.31;98963.02;104930;1279;107701;-81
2023/05/24 08:46:11;;;;;;;27.70;17.30;;;;;;;20.03;69.39;98966.55;103495;1277;99303;-80
2023/05/24 08:48:47;;;;;;;25.60;17.30;;;;;;;20.22;69.27;98966.86;103568;1277;98284;-81
2023/05/24 08:51:16;;;;;;;25.50;16.70;;;;;;;20.41;69.38;98970.88;103791;1279;111958;-81
2023/05/24 08:53:47;;;;;;;27.40;17.50;;;;;;;20.47;69.17;98973.95;103409;1279;98062;-81
2023/05/24 08:56:17;;;;;;;26.00;16.70;;;;;;;20.50;68.73;98975.59;103470;1288;107536;-82
2023/05/24 08:58:45;;;;;;;27.80;17.40;;;;;;;20.56;69.04;98974.84;103881;1274;99319;-82
2023/05/24 09:01:15;;;;;;;26.80;16.80;;;;;;;20.77;69.20;98979.34;104971;1276;97874;-82
2023/05/24 09:03:45;;;;;;;29.80;17.00;;;;;;;20.90;68.51;98978.80;105763;1276;111362;-80
2023/05/24 09:06:18;;;;;;;24.60;16.50;;;;;;;20.94;68.64;98975.88;103877;1276;97976;-82
2023/05/24 09:08:51;;;;;;;24.70;15.60;;;;;;;21.08;68.71;98975.77;103564;1278;106896;-83
2023/05/24 09:11:21;;;;;;;24.60;16.20;;;;;;;21.15;68.14;98975.15;103569;1279;97889;-81
2023/05/24 09:13:50;;;;;;;26.60;17.00;;;;;;;20.98;67.70;98977.98;103588;1276;97957;-81
2023/05/24 09:16:18;;;;;;;24.50;16.00;;;;;;;20.89;68.50;98980.99;104067;1279;111311;-82
2023/05/24 09:18:46;;;;;;;27.50;15.40;;;;;;;20.82;68.21;98985.23;104445;1276;97940;-82
2023/05/24 09:21:14;;;;;;;25.90;16.20;;;;;;;20.87;68.42;98991.01;103720;1279;107011;-81
2023/05/24 09:23:44;;;;;;;23.00;15.50;;;;;;;20.95;68.08;98993.09;103562;1287;99333;-81
2023/05/24 09:26:12;;;;;;;27.30;15.50;;;;;;;21.06;68.27;98997.09;103590;1279;98030;-82
2023/05/24 09:28:40;;;;;;;27.30;15.80;;;;;;;21.31;68.10;98999.55;103483;1287;111020;-82
2023/05/24 09:31:08;;;;;;;23.50;15.00;;;;;;;21.40;68.24;98998.69;103386;1280;99473;-81
2023/05/24 09:33:38;;;;;;;25.60;15.00;;;;;;;21.33;67.50;98995.66;103420;1280;106116;-81
2023/05/24 09:36:07;;;;;;;21.90;14.20;;;;;;;21.23;67.35;98995.42;103418;1277;98928;-82
2023/05/24 09:38:35;;;;;;;24.60;15.60;;;;;;;21.10;66.83;98998.02;103454;1280;98080;-81
2023/05/24 09:41:06;;;;;;;22.40;14.40;;;;;;;21.00;67.68;98993.27;103477;1274;112790;-79
2023/05/24 09:43:45;;;;;;;25.90;16.20;;;;;;;21.03;67.34;98994.91;103503;1275;97975;-78
2023/05/24 09:46:21;;;;;;;26.00;16.10;;;;;;;21.05;67.66;98992.52;103484;1283;107688;-79
2023/05/24 09:49:02;;;;;;;26.90;17.70;;;;;;;21.05;67.41;98998.27;103736;1279;98081;-76
2023/05/24 09:51:31;;;;;;;23.90;15.50;;;;;;;20.88;67.01;98995.02;103524;1276;97890;-74
2023/05/24 09:54:02;;;;;;;25.20;16.80;;;;;;;20.72;66.92;98999.70;103518;1277;111776;-76
2023/05/24 09:56:32;;;;;;;29.00;16.40;;;;;;;20.68;67.05;99003.95;103498;1280;98094;-76
2023/05/24 09:59:07;;;;;;;27.80;18.00;;;;;;;20.69;67.18;99004.55;103641;1276;107438;-77
2023/05/24 10:01:36;;;;;;;28.10;18.60;;;;;;;20.57;66.37;99009.11;103816;1279;97918;-77
2023/05/24 10:04:07;;;;;;;29.70;19.70;;;;;;;20.48;66.78;99006.77;103492;1276;97960;-76
2023/05/24 10:06:38;;;;;;;29.40;18.90;;;;;;;20.52;66.66;99009.68;103838;1279;111378;-76
2023/05/24 10:09:08;;;;;;;26.30;18.30;;;;;;;20.66;66.96;99017.18;103657;1279;97972;-79
2023/05/24 10:11:36;;;;;;;28.10;19.00;;;;;;;20.86;66.96;99014.79;103697;1279;107107;-79
2023/05/24 10:14:08;;;;;;;29.80;20.10;;;;;;;21.07;66.95;99016.95;103618;1280;98086;-77
2023/05/24 10:16:39;;;;;;;28.80;19.60;;;;;;;21.40;67.08;99021.04;103553;1279;98040;-78
2023/05/24 10:19:07;;;;;;;27.40;19.80;;;;;;;21.68;67.14;99022.45;103453;1276;111176;-77
2023/05/24 10:21:38;;;;;;;27.50;18.60;;;;;;;21.90;66.37;99025.23;103351;1279;99340;-77
2023/05/24 10:24:09;;;;;;;28.30;19.30;;;;;;;21.99;66.22;99026.58;103458;1276;107817;-80
2023/05/24 10:26:38;;;;;;;26.80;18.50;;;;;;;22.14;66.71;99030.45;103378;1291;98088;-77
2023/05/24 10:29:14;;;;;;;29.20;20.20;;;;;;;22.26;66.19;99030.27;103542;1277;98003;-80
2023/05/24 10:31:45;;;;;;;28.10;20.10;;;;;;;22.37;66.11;99028.53;103543;1283;111222;-77
2023/05/24 10:34:13;;;;;;;30.80;20.10;;;;;;;22.57;66.42;99032.42;103470;1289;98043;-78
2023/05/24 10:36:43;;;;;;;26.40;18.70;;;;;;;22.76;66.08;99034.39;103395;1279;109654;-78
2023/05/24 10:42:01;;;;;;;29.60;20.10;;;;;;;22.89;66.26;99037.48;103453;1289;98021;-77
2023/05/24 10:44:30;;;;;;;28.80;20.50;;;;;;;22.88;65.53;99041.39;103459;1280;110472;-77
2023/05/24 10:47:19;;;;;;;28.40;21.30;;;;;;;22.75;65.15;99040.92;103554;1280;97992;-77
2023/05/24 10:49:52;;;;;;;31.20;22.60;;;;;;;22.77;65.03;99044.08;103494;1279;107868;-78
2023/05/24 10:52:20;;;;;;;30.10;21.80;;;;;;;22.78;65.07;99047.09;103761;1280;98000;-77
2023/05/24 10:55:09;;;;;;;29.90;22.20;;;;;;;22.70;64.61;99047.66;106061;1278;97963;-78
2023/05/24 10:57:38;;;;;;;28.50;21.00;;;;;;;22.66;65.07;99049.36;103569;1275;112520;-79
2023/05/24 11:00:18;;;;;;;29.40;21.60;;;;;;;22.78;65.40;99048.80;103469;1281;98069;-77
2023/05/24 11:03:12;;;;;;;30.80;22.00;;;;;;;22.98;65.26;99052.10;103618;1280;107715;-76
2023/05/24 11:05:48;;;;;;;28.60;21.30;;;;;;;23.26;65.24;99053.52;103948;1283;98017;-76
2023/05/24 11:08:43;;;;;;;27.60;19.90;;;;;;;23.30;64.91;99057.55;104390;1276;97929;-76
2023/05/24 11:11:13;;;;;;;30.00;21.50;;;;;;;23.20;64.45;99053.86;103901;1279;111167;-77
2023/05/24 11:13:56;;;;;;;27.70;19.70;;;;;;;23.21;63.91;99051.66;103556;1276;98106;-77
2023/05/24 11:16:37;;;;;;;27.90;21.40;;;;;;;23.14;64.42;99047.75;103841;1277;108173;-79
2023/05/24 11:19:23;;;;;;;29.90;21.60;;;;;;;23.20;64.58;99044.92;105668;1276;97918;-76
2023/05/24 11:21:52;;;;;;;32.40;21.60;;;;;;;23.21;64.42;99043.48;103440;1280;99392;-78